sensor_id;sensor_type;location;lat;lon;timestamp;pressure;altitude;pressure_sealevel;temperature;humidity
28456;BME280;15682;56.742;38.866;2023-05-03T00:01:11;99740.0;;;6.9;66.5
28456;BME280;15682;56.742;38.866;2023-05-03T00:03:11;99740.0;;;6.9;66.7
28456;BME280;15682;56.742;38.866;2023-05-03T00:05:11;99740.0;;;6.8;66.7
28456;BME280;15682;56.742;38.866;2023-05-03T00:07:11;99730.0;;;6.8;67.6
28456;BME280;15682;56.742;38.866;2023-05-03T00:09:11;99730.0;;;6.8;67.6
28456;BME280;15682;56.742;38.866;2023-05-03T00:11:11;99730.0;;;6.8;67.6
28456;BME280;15682;56.742;38.866;2023-05-03T00:13:12;99730.0;;;6.8;67.6
28456;BME280;15682;56.742;38.866;2023-05-03T00:15:12;99720.0;;;6.7;67.6
28456;BME280;15682;56.742;38.866;2023-05-03T00:17:12;99710.0;;;6.7;67.6
28456;BME280;15682;56.742;38.866;2023-05-03T00:19:12;99710.0;;;6.6;67.6
28456;BME280;15682;56.742;38.866;2023-05-03T00:21:12;99710.0;;;6.6;67.6
28456;BME280;15682;56.742;38.866;2023-05-03T00:23:12;99710.0;;;6.6;67.6
28456;BME280;15682;56.742;38.866;2023-05-03T00:25:12;99710.0;;;6.6;68.2
28456;BME280;15682;56.742;38.866;2023-05-03T00:27:12;99710.0;;;6.6;68.0
28456;BME280;15682;56.742;38.866;2023-05-03T00:29:12;99710.0;;;6.6;68.0
28456;BME280;15682;56.742;38.866;2023-05-03T00:31:12;99710.0;;;6.6;68.0
28456;BME280;15682;56.742;38.866;2023-05-03T00:33:12;99710.0;;;6.6;68.0
28456;BME280;15682;56.742;38.866;2023-05-03T00:35:12;99710.0;;;6.5;68.0
28456;BME280;15682;56.742;38.866;2023-05-03T00:37:12;99710.0;;;6.5;68.9
28456;BME280;15682;56.742;38.866;2023-05-03T00:39:12;99710.0;;;6.5;68.9
28456;BME280;15682;56.742;38.866;2023-05-03T00:41:12;99710.0;;;6.4;68.9
28456;BME280;15682;56.742;38.866;2023-05-03T00:43:12;99710.0;;;6.4;68.9
28456;BME280;15682;56.742;38.866;2023-05-03T00:45:12;99710.0;;;6.4;68.9
28456;BME280;15682;56.742;38.866;2023-05-03T00:47:13;99710.0;;;6.4;69.0
28456;BME280;15682;56.742;38.866;2023-05-03T00:49:12;99710.0;;;6.4;69.0
28456;BME280;15682;56.742;38.866;2023-05-03T00:51:14;99700.0;;;6.4;69.0
28456;BME280;15682;56.742;38.866;2023-05-03T00:53:13;99690.0;;;6.4;69.4
28456;BME280;15682;56.742;38.866;2023-05-03T00:55:13;99690.0;;;6.3;69.4
28456;BME280;15682;56.742;38.866;2023-05-03T00:57:13;99680.0;;;6.3;69.6
28456;BME280;15682;56.742;38.866;2023-05-03T00:59:13;99680.0;;;6.3;69.6
28456;BME280;15682;56.742;38.866;2023-05-03T01:01:13;99680.0;;;6.3;69.6
28456;BME280;15682;56.742;38.866;2023-05-03T01:03:13;99680.0;;;6.3;69.6
28456;BME280;15682;56.742;38.866;2023-05-03T01:05:14;99680.0;;;6.2;69.6
28456;BME280;15682;56.742;38.866;2023-05-03T01:07:22;99680.0;;;6.2;69.4
28456;BME280;15682;56.742;38.866;2023-05-03T01:09:22;99670.0;;;6.2;69.4
28456;BME280;15682;56.742;38.866;2023-05-03T01:11:16;99670.0;;;6.2;69.4
28456;BME280;15682;56.742;38.866;2023-05-03T01:13:20;99660.0;;;6.3;69.4
28456;BME280;15682;56.742;38.866;2023-05-03T01:15:17;99650.0;;;6.3;69.4
28456;BME280;15682;56.742;38.866;2023-05-03T01:17:14;99660.0;;;6.3;69.6
28456;BME280;15682;56.742;38.866;2023-05-03T01:19:21;99660.0;;;6.3;69.6
28456;BME280;15682;56.742;38.866;2023-05-03T01:21:15;99660.0;;;6.3;69.6
28456;BME280;15682;56.742;38.866;2023-05-03T01:23:21;99660.0;;;6.3;69.6
28456;BME280;15682;56.742;38.866;2023-05-03T01:25:14;99660.0;;;6.3;69.6
28456;BME280;15682;56.742;38.866;2023-05-03T01:27:13;99660.0;;;6.3;69.3
28456;BME280;15682;56.742;38.866;2023-05-03T01:29:13;99660.0;;;6.3;69.3
28456;BME280;15682;56.742;38.866;2023-05-03T01:31:19;99660.0;;;6.3;69.3
28456;BME280;15682;56.742;38.866;2023-05-03T01:33:22;99660.0;;;6.3;69.3
28456;BME280;15682;56.742;38.866;2023-05-03T01:35:28;99660.0;;;6.4;68.9
28456;BME280;15682;56.742;38.866;2023-05-03T01:37:14;99660.0;;;6.4;68.9
28456;BME280;15682;56.742;38.866;2023-05-03T01:39:18;99660.0;;;6.4;69.6
28456;BME280;15682;56.742;38.866;2023-05-03T01:41:15;99660.0;;;6.4;69.0
28456;BME280;15682;56.742;38.866;2023-05-03T01:43:15;99650.0;;;6.4;69.7
28456;BME280;15682;56.742;38.866;2023-05-03T01:45:14;99650.0;;;6.3;69.7
28456;BME280;15682;56.742;38.866;2023-05-03T01:47:14;99640.0;;;6.3;69.1
28456;BME280;15682;56.742;38.866;2023-05-03T01:49:14;99630.0;;;6.3;69.1
28456;BME280;15682;56.742;38.866;2023-05-03T01:51:14;99630.0;;;6.3;69.1
28456;BME280;15682;56.742;38.866;2023-05-03T01:53:14;99630.0;;;6.3;69.9
28456;BME280;15682;56.742;38.866;2023-05-03T01:55:14;99630.0;;;6.4;69.3
28456;BME280;15682;56.742;38.866;2023-05-03T01:57:14;99630.0;;;6.4;69.4
28456;BME280;15682;56.742;38.866;2023-05-03T01:59:14;99630.0;;;6.4;69.4
28456;BME280;15682;56.742;38.866;2023-05-03T02:01:14;99630.0;;;6.4;69.4
28456;BME280;15682;56.742;38.866;2023-05-03T02:03:14;99630.0;;;6.4;70.1
28456;BME280;15682;56.742;38.866;2023-05-03T02:05:14;99630.0;;;6.4;69.5
28456;BME280;15682;56.742;38.866;2023-05-03T02:07:14;99630.0;;;6.4;69.6
28456;BME280;15682;56.742;38.866;2023-05-03T02:09:14;99620.0;;;6.4;69.6
28456;BME280;15682;56.742;38.866;2023-05-03T02:11:14;99620.0;;;6.4;69.6
28456;BME280;15682;56.742;38.866;2023-05-03T02:13:14;99620.0;;;6.4;69.2
28456;BME280;15682;56.742;38.866;2023-05-03T02:15:14;99610.0;;;6.4;69.8
28456;BME280;15682;56.742;38.866;2023-05-03T02:17:14;99600.0;;;6.4;70.0
28456;BME280;15682;56.742;38.866;2023-05-03T02:19:14;99600.0;;;6.4;70.0
28456;BME280;15682;56.742;38.866;2023-05-03T02:21:15;99590.0;;;6.4;70.0
28456;BME280;15682;56.742;38.866;2023-05-03T02:23:15;99590.0;;;6.4;70.0
28456;BME280;15682;56.742;38.866;2023-05-03T02:25:15;99590.0;;;6.4;70.0
28456;BME280;15682;56.742;38.866;2023-05-03T02:27:15;99590.0;;;6.4;70.4
28456;BME280;15682;56.742;38.866;2023-05-03T02:29:15;99590.0;;;6.4;70.4
28456;BME280;15682;56.742;38.866;2023-05-03T02:31:15;99590.0;;;6.4;70.7
28456;BME280;15682;56.742;38.866;2023-05-03T02:33:15;99590.0;;;6.4;69.9
28456;BME280;15682;56.742;38.866;2023-05-03T02:35:15;99590.0;;;6.5;69.9
28456;BME280;15682;56.742;38.866;2023-05-03T02:37:15;99580.0;;;6.6;70.1
28456;BME280;15682;56.742;38.866;2023-05-03T02:39:15;99570.0;;;6.6;70.1
28456;BME280;15682;56.742;38.866;2023-05-03T02:41:15;99570.0;;;6.7;69.3
28456;BME280;15682;56.742;38.866;2023-05-03T02:43:15;99570.0;;;6.7;69.8
28456;BME280;15682;56.742;38.866;2023-05-03T02:45:15;99570.0;;;6.8;69.8
28456;BME280;15682;56.742;38.866;2023-05-03T02:47:15;99570.0;;;6.8;69.4
28456;BME280;15682;56.742;38.866;2023-05-03T02:49:15;99570.0;;;7.0;69.4
28456;BME280;15682;56.742;38.866;2023-05-03T02:51:15;99570.0;;;7.0;69.2
28456;BME280;15682;56.742;38.866;2023-05-03T02:53:16;99570.0;;;7.1;68.5
28456;BME280;15682;56.742;38.866;2023-05-03T02:55:16;99570.0;;;7.2;69.1
28456;BME280;15682;56.742;38.866;2023-05-03T02:57:16;99570.0;;;7.2;69.1
28456;BME280;15682;56.742;38.866;2023-05-03T02:59:16;99570.0;;;7.4;68.3
28456;BME280;15682;56.742;38.866;2023-05-03T03:01:16;99570.0;;;7.4;68.3
28456;BME280;15682;56.742;38.866;2023-05-03T03:03:16;99570.0;;;7.5;68.3
28456;BME280;15682;56.742;38.866;2023-05-03T03:05:16;99570.0;;;7.6;68.3
28456;BME280;15682;56.742;38.866;2023-05-03T03:07:16;99580.0;;;7.6;68.6
28456;BME280;15682;56.742;38.866;2023-05-03T03:09:16;99580.0;;;7.6;68.6
28456;BME280;15682;56.742;38.866;2023-05-03T03:11:16;99580.0;;;7.6;68.6
28456;BME280;15682;56.742;38.866;2023-05-03T03:13:16;99580.0;;;7.8;67.6
28456;BME280;15682;56.742;38.866;2023-05-03T03:15:16;99580.0;;;7.8;68.5
28456;BME280;15682;56.742;38.866;2023-05-03T03:17:16;99580.0;;;7.8;68.3
28456;BME280;15682;56.742;38.866;2023-05-03T03:19:16;99580.0;;;7.9;68.3
28456;BME280;15682;56.742;38.866;2023-05-03T03:21:17;99580.0;;;7.9;67.5
28456;BME280;15682;56.742;38.866;2023-05-03T03:23:17;99580.0;;;8.1;67.5
28456;BME280;15682;56.742;38.866;2023-05-03T03:25:17;99580.0;;;8.1;67.5
28456;BME280;15682;56.742;38.866;2023-05-03T03:27:17;99580.0;;;8.1;66.0
28456;BME280;15682;56.742;38.866;2023-05-03T03:29:17;99580.0;;;8.3;66.0
28456;BME280;15682;56.742;38.866;2023-05-03T03:31:17;99580.0;;;8.3;66.0
28456;BME280;15682;56.742;38.866;2023-05-03T03:33:17;99580.0;;;8.4;66.8
28456;BME280;15682;56.742;38.866;2023-05-03T03:35:17;99580.0;;;8.4;66.1
28456;BME280;15682;56.742;38.866;2023-05-03T03:37:18;99580.0;;;8.4;65.1
28456;BME280;15682;56.742;38.866;2023-05-03T03:39:17;99580.0;;;8.5;64.6
28456;BME280;15682;56.742;38.866;2023-05-03T03:41:18;99580.0;;;8.6;64.6
28456;BME280;15682;56.742;38.866;2023-05-03T03:43:18;99580.0;;;8.6;64.6
28456;BME280;15682;56.742;38.866;2023-05-03T03:45:18;99580.0;;;8.8;64.6
28456;BME280;15682;56.742;38.866;2023-05-03T03:47:18;99580.0;;;8.8;64.0
28456;BME280;15682;56.742;38.866;2023-05-03T03:49:18;99580.0;;;8.8;64.0
28456;BME280;15682;56.742;38.866;2023-05-03T03:51:18;99580.0;;;8.8;64.0
28456;BME280;15682;56.742;38.866;2023-05-03T03:53:18;99580.0;;;8.8;64.0
28456;BME280;15682;56.742;38.866;2023-05-03T03:55:18;99580.0;;;8.6;64.0
28456;BME280;15682;56.742;38.866;2023-05-03T03:57:18;99580.0;;;8.6;64.5
28456;BME280;15682;56.742;38.866;2023-05-03T03:59:19;99580.0;;;8.8;64.5
28456;BME280;15682;56.742;38.866;2023-05-03T04:01:19;99580.0;;;8.8;64.5
28456;BME280;15682;56.742;38.866;2023-05-03T04:03:19;99580.0;;;8.8;64.5
28456;BME280;15682;56.742;38.866;2023-05-03T04:05:19;99580.0;;;8.9;64.5
28456;BME280;15682;56.742;38.866;2023-05-03T04:07:19;99580.0;;;8.9;65.2
28456;BME280;15682;56.742;38.866;2023-05-03T04:09:19;99580.0;;;8.9;65.2
28456;BME280;15682;56.742;38.866;2023-05-03T04:11:19;99580.0;;;8.9;65.2
28456;BME280;15682;56.742;38.866;2023-05-03T04:13:19;99580.0;;;9.0;64.6
28456;BME280;15682;56.742;38.866;2023-05-03T04:15:19;99580.0;;;9.0;64.6
28456;BME280;15682;56.742;38.866;2023-05-03T04:17:20;99580.0;;;9.0;64.9
28456;BME280;15682;56.742;38.866;2023-05-03T04:19:20;99590.0;;;9.0;64.0
28456;BME280;15682;56.742;38.866;2023-05-03T04:21:20;99590.0;;;9.0;64.6
28456;BME280;15682;56.742;38.866;2023-05-03T04:23:20;99590.0;;;9.0;64.6
28456;BME280;15682;56.742;38.866;2023-05-03T04:25:20;99590.0;;;8.9;64.6
28456;BME280;15682;56.742;38.866;2023-05-03T04:27:21;99590.0;;;8.9;65.0
28456;BME280;15682;56.742;38.866;2023-05-03T04:29:20;99590.0;;;8.9;63.9
28456;BME280;15682;56.742;38.866;2023-05-03T04:31:20;99590.0;;;9.1;63.9
28456;BME280;15682;56.742;38.866;2023-05-03T04:33:20;99590.0;;;9.1;66.3
28456;BME280;15682;56.742;38.866;2023-05-03T04:35:20;99590.0;;;9.1;65.2
28456;BME280;15682;56.742;38.866;2023-05-03T04:37:21;99580.0;;;9.1;64.3
28456;BME280;15682;56.742;38.866;2023-05-03T04:39:21;99580.0;;;9.1;64.3
28456;BME280;15682;56.742;38.866;2023-05-03T04:41:21;99580.0;;;9.1;65.5
28456;BME280;15682;56.742;38.866;2023-05-03T04:43:21;99580.0;;;9.1;65.5
28456;BME280;15682;56.742;38.866;2023-05-03T04:45:21;99570.0;;;9.1;66.3
28456;BME280;15682;56.742;38.866;2023-05-03T04:47:21;99570.0;;;8.9;66.5
28456;BME280;15682;56.742;38.866;2023-05-03T04:49:21;99570.0;;;9.1;67.2
28456;BME280;15682;56.742;38.866;2023-05-03T04:51:22;99570.0;;;9.1;67.2
28456;BME280;15682;56.742;38.866;2023-05-03T04:53:22;99570.0;;;9.1;67.2
28456;BME280;15682;56.742;38.866;2023-05-03T04:55:22;99570.0;;;9.1;67.2
28456;BME280;15682;56.742;38.866;2023-05-03T04:57:22;99570.0;;;9.1;67.8
28456;BME280;15682;56.742;38.866;2023-05-03T04:59:22;99570.0;;;9.1;67.2
28456;BME280;15682;56.742;38.866;2023-05-03T05:01:22;99570.0;;;8.9;68.7
28456;BME280;15682;56.742;38.866;2023-05-03T05:03:22;99600.0;;;8.9;68.7
28456;BME280;15682;56.742;38.866;2023-05-03T05:05:22;99600.0;;;9.0;70.4
28456;BME280;15682;56.742;38.866;2023-05-03T05:07:23;99600.0;;;9.0;70.4
28456;BME280;15682;56.742;38.866;2023-05-03T05:09:25;99600.0;;;9.0;71.2
28456;BME280;15682;56.742;38.866;2023-05-03T05:11:23;99600.0;;;8.8;72.9
28456;BME280;15682;56.742;38.866;2023-05-03T05:13:23;99600.0;;;8.7;77.0
28456;BME280;15682;56.742;38.866;2023-05-03T05:15:23;99590.0;;;8.5;77.0
28456;BME280;15682;56.742;38.866;2023-05-03T05:17:23;99580.0;;;8.5;77.8
28456;BME280;15682;56.742;38.866;2023-05-03T05:19:23;99580.0;;;8.3;76.1
28456;BME280;15682;56.742;38.866;2023-05-03T05:21:23;99600.0;;;8.2;79.3
28456;BME280;15682;56.742;38.866;2023-05-03T05:23:23;99610.0;;;8.2;78.4
28456;BME280;15682;56.742;38.866;2023-05-03T05:25:24;99610.0;;;8.2;80.3
28456;BME280;15682;56.742;38.866;2023-05-03T05:27:24;99610.0;;;8.2;81.3
28456;BME280;15682;56.742;38.866;2023-05-03T05:29:24;99620.0;;;8.2;81.6
28456;BME280;15682;56.742;38.866;2023-05-03T05:31:24;99620.0;;;7.9;80.5
28456;BME280;15682;56.742;38.866;2023-05-03T05:33:24;99620.0;;;7.9;80.5
28456;BME280;15682;56.742;38.866;2023-05-03T05:35:24;99620.0;;;8.1;78.7
28456;BME280;15682;56.742;38.866;2023-05-03T05:37:24;99620.0;;;8.1;78.7
28456;BME280;15682;56.742;38.866;2023-05-03T05:39:24;99610.0;;;8.1;79.4
28456;BME280;15682;56.742;38.866;2023-05-03T05:41:24;99610.0;;;7.9;79.4
28456;BME280;15682;56.742;38.866;2023-05-03T05:43:24;99610.0;;;7.9;79.4
28456;BME280;15682;56.742;38.866;2023-05-03T05:45:24;99610.0;;;7.9;80.4
28456;BME280;15682;56.742;38.866;2023-05-03T05:47:25;99610.0;;;7.9;80.8
28456;BME280;15682;56.742;38.866;2023-05-03T05:49:25;99610.0;;;7.9;81.3
28456;BME280;15682;56.742;38.866;2023-05-03T05:51:25;99610.0;;;7.9;81.3
28456;BME280;15682;56.742;38.866;2023-05-03T05:53:25;99620.0;;;7.9;81.5
28456;BME280;15682;56.742;38.866;2023-05-03T05:55:25;99620.0;;;7.9;81.0
28456;BME280;15682;56.742;38.866;2023-05-03T05:57:25;99620.0;;;7.9;81.5
28456;BME280;15682;56.742;38.866;2023-05-03T05:59:25;99620.0;;;7.9;81.5
28456;BME280;15682;56.742;38.866;2023-05-03T06:01:25;99620.0;;;7.9;80.9
28456;BME280;15682;56.742;38.866;2023-05-03T06:03:25;99620.0;;;7.9;80.9
28456;BME280;15682;56.742;38.866;2023-05-03T06:05:25;99620.0;;;7.9;82.1
28456;BME280;15682;56.742;38.866;2023-05-03T06:07:25;99610.0;;;7.9;81.5
28456;BME280;15682;56.742;38.866;2023-05-03T06:09:25;99610.0;;;7.9;81.5
28456;BME280;15682;56.742;38.866;2023-05-03T06:11:26;99610.0;;;7.9;81.5
28456;BME280;15682;56.742;38.866;2023-05-03T06:13:26;99600.0;;;8.0;81.5
28456;BME280;15682;56.742;38.866;2023-05-03T06:15:26;99600.0;;;7.9;81.0
28456;BME280;15682;56.742;38.866;2023-05-03T06:17:26;99600.0;;;7.9;80.9
28456;BME280;15682;56.742;38.866;2023-05-03T06:19:26;99600.0;;;7.9;79.8
28456;BME280;15682;56.742;38.866;2023-05-03T06:21:26;99610.0;;;8.0;79.8
28456;BME280;15682;56.742;38.866;2023-05-03T06:23:26;99610.0;;;8.0;80.4
28456;BME280;15682;56.742;38.866;2023-05-03T06:25:26;99610.0;;;8.1;80.9
28456;BME280;15682;56.742;38.866;2023-05-03T06:27:26;99610.0;;;8.2;81.1
28456;BME280;15682;56.742;38.866;2023-05-03T06:29:27;99620.0;;;8.2;81.1
28456;BME280;15682;56.742;38.866;2023-05-03T06:31:27;99620.0;;;8.2;80.7
28456;BME280;15682;56.742;38.866;2023-05-03T06:33:27;99620.0;;;8.2;80.7
28456;BME280;15682;56.742;38.866;2023-05-03T06:35:27;99620.0;;;8.1;80.7
28456;BME280;15682;56.742;38.866;2023-05-03T06:37:27;99610.0;;;8.1;79.8
28456;BME280;15682;56.742;38.866;2023-05-03T06:39:27;99610.0;;;8.3;79.1
28456;BME280;15682;56.742;38.866;2023-05-03T06:41:27;99610.0;;;8.3;79.1
28456;BME280;15682;56.742;38.866;2023-05-03T06:43:27;99610.0;;;8.4;79.1
28456;BME280;15682;56.742;38.866;2023-05-03T06:45:27;99610.0;;;8.6;79.8
28456;BME280;15682;56.742;38.866;2023-05-03T06:47:27;99620.0;;;8.6;79.5
28456;BME280;15682;56.742;38.866;2023-05-03T06:49:27;99620.0;;;8.7;78.6
28456;BME280;15682;56.742;38.866;2023-05-03T06:51:28;99620.0;;;8.7;78.6
28456;BME280;15682;56.742;38.866;2023-05-03T06:53:28;99620.0;;;8.8;79.2
28456;BME280;15682;56.742;38.866;2023-05-03T06:55:28;99620.0;;;8.7;77.4
28456;BME280;15682;56.742;38.866;2023-05-03T06:57:28;99620.0;;;8.8;78.5
28456;BME280;15682;56.742;38.866;2023-05-03T06:59:28;99620.0;;;9.0;78.5
28456;BME280;15682;56.742;38.866;2023-05-03T07:01:29;99620.0;;;9.0;77.9
28456;BME280;15682;56.742;38.866;2023-05-03T07:03:28;99620.0;;;9.1;79.2
28456;BME280;15682;56.742;38.866;2023-05-03T07:05:29;99620.0;;;9.2;78.4
28456;BME280;15682;56.742;38.866;2023-05-03T07:07:28;99620.0;;;9.2;77.3
28456;BME280;15682;56.742;38.866;2023-05-03T07:09:29;99620.0;;;9.2;78.9
28456;BME280;15682;56.742;38.866;2023-05-03T07:11:29;99620.0;;;9.2;77.5
28456;BME280;15682;56.742;38.866;2023-05-03T07:13:29;99620.0;;;9.2;78.2
28456;BME280;15682;56.742;38.866;2023-05-03T07:15:29;99620.0;;;9.3;78.2
28456;BME280;15682;56.742;38.866;2023-05-03T07:17:29;99620.0;;;9.3;77.6
28456;BME280;15682;56.742;38.866;2023-05-03T07:19:29;99630.0;;;9.3;78.0
28456;BME280;15682;56.742;38.866;2023-05-03T07:21:29;99640.0;;;9.3;78.0
28456;BME280;15682;56.742;38.866;2023-05-03T07:23:30;99640.0;;;9.3;78.0
28456;BME280;15682;56.742;38.866;2023-05-03T07:25:30;99640.0;;;9.4;77.4
28456;BME280;15682;56.742;38.866;2023-05-03T07:27:30;99640.0;;;9.5;77.1
28456;BME280;15682;56.742;38.866;2023-05-03T07:29:30;99640.0;;;9.7;77.1
28456;BME280;15682;56.742;38.866;2023-05-03T07:31:30;99640.0;;;9.9;77.9
28456;BME280;15682;56.742;38.866;2023-05-03T07:33:33;99640.0;;;10.4;76.8
28456;BME280;15682;56.742;38.866;2023-05-03T07:35:30;99640.0;;;10.5;75.1
28456;BME280;15682;56.742;38.866;2023-05-03T07:37:31;99640.0;;;10.5;75.6
28456;BME280;15682;56.742;38.866;2023-05-03T07:39:31;99640.0;;;10.6;74.5
28456;BME280;15682;56.742;38.866;2023-05-03T07:41:31;99650.0;;;10.8;75.8
28456;BME280;15682;56.742;38.866;2023-05-03T07:43:31;99650.0;;;10.9;75.0
28456;BME280;15682;56.742;38.866;2023-05-03T07:45:31;99660.0;;;10.9;74.8
28456;BME280;15682;56.742;38.866;2023-05-03T07:47:31;99660.0;;;10.9;74.7
28456;BME280;15682;56.742;38.866;2023-05-03T07:49:32;99660.0;;;11.6;74.5
28456;BME280;15682;56.742;38.866;2023-05-03T07:51:34;99660.0;;;11.7;70.7
28456;BME280;15682;56.742;38.866;2023-05-03T07:53:32;99660.0;;;12.0;69.8
28456;BME280;15682;56.742;38.866;2023-05-03T07:55:32;99660.0;;;12.1;67.8
28456;BME280;15682;56.742;38.866;2023-05-03T07:57:32;99660.0;;;12.2;70.4
28456;BME280;15682;56.742;38.866;2023-05-03T07:59:32;99660.0;;;12.2;70.9
28456;BME280;15682;56.742;38.866;2023-05-03T08:01:33;99660.0;;;12.4;70.9
28456;BME280;15682;56.742;38.866;2023-05-03T08:03:33;99660.0;;;12.4;70.6
28456;BME280;15682;56.742;38.866;2023-05-03T08:05:33;99660.0;;;12.4;69.7
28456;BME280;15682;56.742;38.866;2023-05-03T08:07:33;99660.0;;;12.6;69.6
28456;BME280;15682;56.742;38.866;2023-05-03T08:09:34;99660.0;;;12.7;70.9
28456;BME280;15682;56.742;38.866;2023-05-03T08:11:34;99660.0;;;13.0;70.2
28456;BME280;15682;56.742;38.866;2023-05-03T08:13:34;99660.0;;;12.9;69.3
28456;BME280;15682;56.742;38.866;2023-05-03T08:15:34;99660.0;;;13.4;69.3
28456;BME280;15682;56.742;38.866;2023-05-03T08:17:40;99660.0;;;13.9;68.5
28456;BME280;15682;56.742;38.866;2023-05-03T08:19:35;99660.0;;;13.5;66.4
28456;BME280;15682;56.742;38.866;2023-05-03T08:21:35;99660.0;;;13.4;67.4
28456;BME280;15682;56.742;38.866;2023-05-03T08:23:35;99660.0;;;13.1;66.3
28456;BME280;15682;56.742;38.866;2023-05-03T08:25:36;99660.0;;;13.2;65.6
28456;BME280;15682;56.742;38.866;2023-05-03T08:27:36;99660.0;;;13.5;66.8
28456;BME280;15682;56.742;38.866;2023-05-03T08:29:36;99650.0;;;13.9;67.8
28456;BME280;15682;56.742;38.866;2023-05-03T08:31:36;99650.0;;;14.0;66.7
28456;BME280;15682;56.742;38.866;2023-05-03T08:33:37;99650.0;;;14.0;66.8
28456;BME280;15682;56.742;38.866;2023-05-03T08:35:37;99650.0;;;14.1;66.0
28456;BME280;15682;56.742;38.866;2023-05-03T08:37:38;99650.0;;;14.4;67.5
28456;BME280;15682;56.742;38.866;2023-05-03T08:39:37;99650.0;;;14.4;68.8
28456;BME280;15682;56.742;38.866;2023-05-03T08:41:38;99650.0;;;14.4;66.3
28456;BME280;15682;56.742;38.866;2023-05-03T08:43:43;99650.0;;;14.4;66.2
28456;BME280;15682;56.742;38.866;2023-05-03T08:45:38;99640.0;;;14.6;66.2
28456;BME280;15682;56.742;38.866;2023-05-03T08:47:39;99640.0;;;14.7;66.6
28456;BME280;15682;56.742;38.866;2023-05-03T08:49:41;99640.0;;;14.7;65.0
28456;BME280;15682;56.742;38.866;2023-05-03T08:51:39;99640.0;;;15.1;63.6
28456;BME280;15682;56.742;38.866;2023-05-03T08:53:39;99640.0;;;15.2;65.4
28456;BME280;15682;56.742;38.866;2023-05-03T08:55:40;99640.0;;;15.1;64.8
28456;BME280;15682;56.742;38.866;2023-05-03T08:57:40;99640.0;;;15.2;65.0
28456;BME280;15682;56.742;38.866;2023-05-03T08:59:46;99660.0;;;15.0;66.2
28456;BME280;15682;56.742;38.866;2023-05-03T09:01:41;99660.0;;;14.8;66.8
28456;BME280;15682;56.742;38.866;2023-05-03T09:03:48;99660.0;;;15.0;64.6
28456;BME280;15682;56.742;38.866;2023-05-03T09:05:41;99660.0;;;15.0;65.6
28456;BME280;15682;56.742;38.866;2023-05-03T09:08:00;99660.0;;;15.4;65.1
28456;BME280;15682;56.742;38.866;2023-05-03T09:09:42;99660.0;;;15.6;65.6
28456;BME280;15682;56.742;38.866;2023-05-03T09:11:42;99660.0;;;16.0;63.3
28456;BME280;15682;56.742;38.866;2023-05-03T09:13:43;99660.0;;;15.7;64.2
28456;BME280;15682;56.742;38.866;2023-05-03T09:15:44;99660.0;;;16.1;63.4
28456;BME280;15682;56.742;38.866;2023-05-03T09:17:43;99660.0;;;15.9;65.1
28456;BME280;15682;56.742;38.866;2023-05-03T09:19:49;99660.0;;;15.7;64.1
28456;BME280;15682;56.742;38.866;2023-05-03T09:21:45;99660.0;;;15.7;64.4
28456;BME280;15682;56.742;38.866;2023-05-03T09:23:44;99660.0;;;15.6;63.4
28456;BME280;15682;56.742;38.866;2023-05-03T09:25:46;99660.0;;;15.7;63.4
28456;BME280;15682;56.742;38.866;2023-05-03T09:27:59;99660.0;;;15.8;63.5
28456;BME280;15682;56.742;38.866;2023-05-03T09:29:45;99660.0;;;16.1;63.5
28456;BME280;15682;56.742;38.866;2023-05-03T09:31:57;99660.0;;;16.3;61.9
28456;BME280;15682;56.742;38.866;2023-05-03T09:33:46;99660.0;;;16.2;61.3
28456;BME280;15682;56.742;38.866;2023-05-03T09:35:56;99660.0;;;16.1;60.7
28456;BME280;15682;56.742;38.866;2023-05-03T09:37:46;99660.0;;;15.9;63.0
28456;BME280;15682;56.742;38.866;2023-05-03T09:39:47;99660.0;;;15.9;61.2
28456;BME280;15682;56.742;38.866;2023-05-03T09:41:47;99650.0;;;15.8;62.0
28456;BME280;15682;56.742;38.866;2023-05-03T09:43:49;99660.0;;;15.8;62.2
28456;BME280;15682;56.742;38.866;2023-05-03T09:45:48;99660.0;;;15.9;61.7
28456;BME280;15682;56.742;38.866;2023-05-03T09:47:48;99660.0;;;15.9;62.4
28456;BME280;15682;56.742;38.866;2023-05-03T09:49:48;99660.0;;;16.0;61.7
28456;BME280;15682;56.742;38.866;2023-05-03T09:51:49;99660.0;;;16.0;61.7
28456;BME280;15682;56.742;38.866;2023-05-03T09:53:49;99650.0;;;16.1;62.1
28456;BME280;15682;56.742;38.866;2023-05-03T09:55:49;99650.0;;;16.2;62.1
28456;BME280;15682;56.742;38.866;2023-05-03T09:57:51;99650.0;;;16.5;61.7
28456;BME280;15682;56.742;38.866;2023-05-03T09:59:50;99650.0;;;15.9;62.5
28456;BME280;15682;56.742;38.866;2023-05-03T10:01:55;99650.0;;;15.3;62.7
28456;BME280;15682;56.742;38.866;2023-05-03T10:03:51;99660.0;;;15.1;65.0
28456;BME280;15682;56.742;38.866;2023-05-03T10:05:52;99660.0;;;15.0;65.7
28456;BME280;15682;56.742;38.866;2023-05-03T10:07:54;99660.0;;;14.7;64.6
28456;BME280;15682;56.742;38.866;2023-05-03T10:09:52;99660.0;;;14.6;66.2
28456;BME280;15682;56.742;38.866;2023-05-03T10:11:53;99660.0;;;14.5;64.6
28456;BME280;15682;56.742;38.866;2023-05-03T10:13:53;99660.0;;;14.3;64.6
28456;BME280;15682;56.742;38.866;2023-05-03T10:16:05;99660.0;;;14.3;64.7
28456;BME280;15682;56.742;38.866;2023-05-03T10:17:56;99660.0;;;14.3;66.0
28456;BME280;15682;56.742;38.866;2023-05-03T10:19:56;99660.0;;;14.4;64.5
28456;BME280;15682;56.742;38.866;2023-05-03T10:22:01;99660.0;;;14.4;64.8
28456;BME280;15682;56.742;38.866;2023-05-03T10:24:09;99660.0;;;14.4;66.2
28456;BME280;15682;56.742;38.866;2023-05-03T10:26:12;99660.0;;;14.3;65.2
28456;BME280;15682;56.742;38.866;2023-05-03T10:28:00;99660.0;;;14.3;66.2
28456;BME280;15682;56.742;38.866;2023-05-03T10:29:55;99660.0;;;14.3;64.7
28456;BME280;15682;56.742;38.866;2023-05-03T10:31:55;99680.0;;;14.3;64.7
28456;BME280;15682;56.742;38.866;2023-05-03T10:33:56;99670.0;;;14.2;65.6
28456;BME280;15682;56.742;38.866;2023-05-03T10:35:56;99680.0;;;14.1;65.6
28456;BME280;15682;56.742;38.866;2023-05-03T10:37:56;99680.0;;;14.0;66.1
28456;BME280;15682;56.742;38.866;2023-05-03T10:40:04;99680.0;;;13.7;68.0
28456;BME280;15682;56.742;38.866;2023-05-03T10:41:58;99680.0;;;13.7;68.0
28456;BME280;15682;56.742;38.866;2023-05-03T10:43:57;99680.0;;;13.6;68.0
28456;BME280;15682;56.742;38.866;2023-05-03T10:45:58;99680.0;;;13.7;68.2
28456;BME280;15682;56.742;38.866;2023-05-03T10:48:16;99680.0;;;13.7;69.4
28456;BME280;15682;56.742;38.866;2023-05-03T10:51:58;99680.0;;;13.5;70.5
28456;BME280;15682;56.742;38.866;2023-05-03T10:53:58;99680.0;;;13.5;69.1
28456;BME280;15682;56.742;38.866;2023-05-03T10:56:00;99690.0;;;13.3;69.8
28456;BME280;15682;56.742;38.866;2023-05-03T10:58:00;99690.0;;;13.3;70.8
28456;BME280;15682;56.742;38.866;2023-05-03T10:59:59;99690.0;;;13.3;72.0
28456;BME280;15682;56.742;38.866;2023-05-03T11:02:00;99700.0;;;13.0;73.2